Time;durP1;ratioP1;P1;durP2;ratioP2;P2;SDS_P1;SDS_P2;PMS_P1;PMS_P2;Temp;Humidity;BMP_temperature;BMP_pressure;BME280_temperature;BME280_humidity;BME280_pressure;Samples;Min_cycle;Max_cycle;Signal;HPM_P1;HPM_P2
2023/08/22 00:01:15;;;;;;;12.90;4.15;;;;;;;20.94;56.50;99702.97;10298179;28;20154;-75
2023/08/22 00:06:15;;;;;;;14.10;3.97;;;;;;;20.92;56.77;99692.41;10298309;28;20093;-76
2023/08/22 00:11:16;;;;;;;15.88;4.00;;;;;;;21.02;57.15;99683.59;10297595;28;20125;-75
2023/08/22 00:16:17;;;;;;;14.85;3.80;;;;;;;21.06;57.53;99675.81;10297282;28;20042;-75
2023/08/22 00:21:18;;;;;;;10.02;3.67;;;;;;;20.50;57.26;99620.09;10297232;28;20058;-76
2023/08/22 00:26:18;;;;;;;18.00;4.35;;;;;;;20.86;58.19;99682.63;10297975;28;20047;-75
2023/08/22 00:31:19;;;;;;;22.67;4.25;;;;;;;20.47;57.96;99661.06;10280051;28;20043;-76
2023/08/22 00:36:20;;;;;;;18.08;4.50;;;;;;;20.59;58.60;99677.16;10296624;28;20042;-75
2023/08/22 00:41:21;;;;;;;25.48;5.28;;;;;;;20.39;58.76;99637.19;10296751;28;20097;-76
2023/08/22 00:46:24;;;;;;;11.75;4.38;;;;;;;20.50;59.32;99657.03;10297010;28;20046;-77
2023/08/22 00:51:25;;;;;;;15.02;4.68;;;;;;;20.55;59.55;99686.00;10296125;28;20053;-76
2023/08/22 00:56:25;;;;;;;14.88;4.00;;;;;;;20.02;60.89;99642.34;10296807;28;20121;-75
2023/08/22 01:01:26;;;;;;;39.72;5.95;;;;;;;20.30;61.99;99714.22;10295972;28;20499;-75
2023/08/22 01:06:46;;;;;;;8.05;3.60;;;;;;;19.94;64.65;99651.66;10296365;28;20039;-76
2023/08/22 01:11:50;;;;;;;14.05;4.00;;;;;;;20.06;63.82;99719.78;10278618;28;20039;-75
2023/08/22 01:16:51;;;;;;;16.08;4.15;;;;;;;20.00;63.02;99715.38;10296713;28;20129;-75
2023/08/22 01:21:53;;;;;;;12.32;3.65;;;;;;;19.53;62.97;99663.63;10294724;28;20058;-75
2023/08/22 01:26:53;;;;;;;14.20;3.47;;;;;;;19.41;63.02;99668.25;10294808;28;20058;-75
2023/08/22 01:32:26;;;;;;;13.95;3.15;;;;;;;19.67;64.00;99735.03;10295724;28;20042;-75
2023/08/22 01:37:30;;;;;;;8.85;2.72;;;;;;;19.21;62.94;99730.66;10293694;28;20415;-76
2023/08/22 01:42:31;;;;;;;28.45;3.65;;;;;;;19.12;62.63;99739.09;10294116;28;20176;-76
2023/08/22 01:47:32;;;;;;;49.17;4.93;;;;;;;18.71;62.10;99692.47;10294885;28;20137;-76
2023/08/22 01:52:32;;;;;;;83.97;7.72;;;;;;;19.15;61.76;99765.56;10294308;28;20598;-75
2023/08/22 01:57:33;;;;;;;64.63;6.90;;;;;;;19.15;61.50;99770.94;10292866;28;20046;-75
2023/08/22 02:02:34;;;;;;;16.73;3.53;;;;;;;19.13;60.80;99738.03;10290083;28;20054;-75
2023/08/22 02:07:35;;;;;;;107.47;10.15;;;;;;;19.35;60.96;99777.78;10293233;28;20081;-76
2023/08/22 02:12:36;;;;;;;31.73;4.68;;;;;;;19.28;60.86;99774.41;10294391;28;20137;-75
2023/08/22 02:17:37;;;;;;;77.60;7.63;;;;;;;19.21;61.01;99788.00;10276560;28;20117;-75
2023/08/22 02:22:39;;;;;;;20.40;3.60;;;;;;;19.16;60.68;99804.06;10292124;28;20157;-75
2023/08/22 02:27:40;;;;;;;17.20;3.72;;;;;;;18.82;60.79;99708.88;10293474;28;20246;-75
2023/08/22 02:32:41;;;;;;;17.63;3.53;;;;;;;19.45;60.69;99774.47;10292789;28;20718;-75
2023/08/22 02:37:42;;;;;;;142.40;10.95;;;;;;;19.22;61.26;99754.63;10292687;28;20529;-75
2023/08/22 02:42:43;;;;;;;41.92;5.88;;;;;;;19.39;61.78;99781.63;10292386;28;20050;-75
2023/08/22 02:47:44;;;;;;;27.85;4.65;;;;;;;19.46;61.57;99770.72;10291964;28;20046;-75
2023/08/22 02:52:45;;;;;;;108.35;8.68;;;;;;;19.04;61.45;99688.31;10292131;28;20050;-75
2023/08/22 02:57:46;;;;;;;22.92;4.40;;;;;;;19.83;61.01;99788.16;10291392;28;20545;-75
2023/08/22 03:02:46;;;;;;;68.47;5.85;;;;;;;20.09;60.58;99760.81;10291417;28;20076;-76
2023/08/22 03:07:47;;;;;;;24.75;4.53;;;;;;;20.45;60.52;99756.78;10291508;28;20039;-75
2023/08/22 03:12:50;;;;;;;321.15;23.20;;;;;;;21.30;59.49;99779.00;10291152;28;20042;-76
2023/08/22 03:17:50;;;;;;;30.20;6.80;;;;;;;22.20;56.52;99799.16;10290630;28;20097;-75
2023/08/22 03:22:51;;;;;;;45.03;6.82;;;;;;;22.64;55.08;99709.59;10273141;28;20474;-76
2023/08/22 03:27:52;;;;;;;32.70;5.82;;;;;;;23.72;52.97;99727.06;10291443;28;20570;-76
2023/08/22 03:32:53;;;;;;;23.90;5.82;;;;;;;24.73;51.16;99779.66;10287253;28;20061;-75
2023/08/22 03:37:53;;;;;;;40.33;5.80;;;;;;;25.58;49.49;99784.25;10287674;28;20101;-76
2023/08/22 03:42:54;;;;;;;62.67;6.88;;;;;;;26.28;47.66;99781.31;10291100;28;20047;-77
2023/08/22 03:47:55;;;;;;;46.45;5.63;;;;;;;26.57;46.26;99718.69;10288461;28;20078;-75
2023/08/22 03:52:56;;;;;;;23.17;5.10;;;;;;;27.36;44.71;99742.81;10291462;28;20485;-76
2023/08/22 03:57:59;;;;;;;19.15;4.32;;;;;;;27.69;42.96;99773.72;10289938;28;20062;-76
2023/08/22 04:03:00;;;;;;;14.52;4.95;;;;;;;27.89;42.16;99775.34;10290634;28;20052;-76
2023/08/22 04:08:01;;;;;;;17.75;4.05;;;;;;;27.84;41.50;99777.34;10289259;28;20039;-75
2023/08/22 04:13:03;;;;;;;17.95;3.70;;;;;;;27.64;41.24;99757.44;10288607;28;20518;-75
2023/08/22 04:18:04;;;;;;;19.48;4.20;;;;;;;27.95;41.65;99782.34;10272949;28;20125;-76
2023/08/22 04:23:04;;;;;;;19.30;3.55;;;;;;;28.27;40.55;99774.44;10273657;28;20105;-75
2023/08/22 04:28:05;;;;;;;25.10;4.15;;;;;;;28.70;39.96;99749.69;10275089;28;20395;-77
2023/08/22 04:33:06;;;;;;;23.70;4.03;;;;;;;29.84;39.04;99783.38;10275609;28;20066;-77
2023/08/22 04:38:07;;;;;;;30.95;4.57;;;;;;;30.42;38.04;99788.00;10278695;28;20061;-76
2023/08/22 04:43:08;;;;;;;30.45;4.47;;;;;;;30.36;37.45;99725.41;10296623;28;20065;-76
2023/08/22 04:48:09;;;;;;;19.75;3.80;;;;;;;31.02;36.81;99794.91;10296682;28;20054;-75
2023/08/22 04:53:10;;;;;;;15.80;3.35;;;;;;;30.98;36.70;99793.09;10296158;28;20494;-75
2023/08/22 04:58:10;;;;;;;33.45;5.35;;;;;;;30.63;36.55;99773.75;10295865;28;20043;-75
2023/08/22 05:03:11;;;;;;;23.55;4.63;;;;;;;30.03;37.44;99728.41;10295955;28;20513;-75
2023/08/22 05:08:12;;;;;;;22.85;4.60;;;;;;;30.06;37.49;99770.81;10296095;28;20043;-75
2023/08/22 05:13:13;;;;;;;54.53;7.32;;;;;;;29.87;38.43;99760.84;10295830;28;20045;-74
2023/08/22 05:18:13;;;;;;;41.17;6.88;;;;;;;30.07;37.90;99778.72;10295231;28;20132;-75
2023/08/22 05:23:14;;;;;;;48.55;8.35;;;;;;;30.16;37.47;99770.56;10296093;28;20066;-75
2023/08/22 05:28:15;;;;;;;46.58;6.78;;;;;;;30.35;37.83;99776.66;10295280;28;20043;-75
2023/08/22 05:33:15;;;;;;;40.88;7.32;;;;;;;30.64;37.78;99773.44;10294954;28;20217;-74
2023/08/22 05:38:16;;;;;;;49.30;8.45;;;;;;;30.93;37.21;99778.44;10294352;28;20057;-74
2023/08/22 05:43:17;;;;;;;46.15;7.93;;;;;;;31.08;37.36;99757.13;10295037;28;20085;-74
2023/08/22 05:48:18;;;;;;;38.17;6.78;;;;;;;31.02;36.39;99717.28;10294468;28;20042;-74
2023/08/22 05:53:18;;;;;;;42.85;6.18;;;;;;;31.59;36.60;99755.63;10293807;28;20034;-74
2023/08/22 05:58:19;;;;;;;36.70;6.10;;;;;;;31.94;35.88;99766.63;10293404;28;20050;-75
2023/08/22 06:03:20;;;;;;;34.88;6.38;;;;;;;32.20;34.85;99761.91;10293883;28;20051;-75
2023/08/22 06:08:20;;;;;;;48.65;7.10;;;;;;;32.39;35.08;99755.22;10294058;28;20038;-74
2023/08/22 06:13:22;;;;;;;56.08;7.63;;;;;;;32.50;35.09;99753.75;10276233;28;20491;-74
2023/08/22 06:18:22;;;;;;;33.80;6.43;;;;;;;32.89;33.58;99771.88;10293362;28;20051;-74
2023/08/22 06:23:23;;;;;;;21.77;4.38;;;;;;;33.10;32.84;99769.19;10293528;28;20062;-75
2023/08/22 06:28:24;;;;;;;22.85;3.80;;;;;;;33.41;30.99;99766.06;10293378;28;20171;-75
2023/08/22 06:33:24;;;;;;;11.48;3.33;;;;;;;33.46;30.74;99714.72;10292795;28;20129;-75
2023/08/22 06:38:25;;;;;;;19.52;3.80;;;;;;;33.72;30.09;99704.31;10292257;28;20125;-75
2023/08/22 06:43:26;;;;;;;9.68;2.88;;;;;;;33.97;28.64;99721.69;10291468;28;20076;-74
2023/08/22 06:48:30;;;;;;;40.63;4.07;;;;;;;34.28;27.65;99739.72;10292665;28;20070;-75
2023/08/22 06:53:30;;;;;;;8.40;2.85;;;;;;;34.62;26.88;99754.28;10292058;28;20097;-75
2023/08/22 06:58:31;;;;;;;9.32;2.42;;;;;;;34.53;25.83;99704.72;10292169;28;20098;-75
2023/08/22 07:03:32;;;;;;;9.05;2.45;;;;;;;34.28;25.82;99645.97;10292396;28;20046;-75
2023/08/22 07:08:33;;;;;;;20.08;3.10;;;;;;;34.87;26.20;99708.19;10292606;28;20042;-76
2023/08/22 07:13:35;;;;;;;6.38;2.90;;;;;;;35.34;25.77;99738.84;10291306;28;20525;-75
2023/08/22 07:18:35;;;;;;;;;;;;;;;35.76;26.34;99751.50;10292122;28;20046;-75
2023/08/22 07:23:37;;;;;;;11.83;2.63;;;;;;;35.61;25.08;99758.59;10290807;28;19937;-75
2023/08/22 07:28:37;;;;;;;14.23;2.78;;;;;;;35.63;25.08;99745.19;10291449;28;20145;-75
2023/08/22 07:33:38;;;;;;;13.98;2.88;;;;;;;35.83;25.77;99748.94;10291706;28;20134;-75
2023/08/22 07:38:39;;;;;;;11.85;3.05;;;;;;;35.78;25.85;99699.44;10291842;28;20158;-75
2023/08/22 07:43:39;;;;;;;22.50;3.33;;;;;;;36.20;25.31;99738.53;10290542;28;20050;-75
2023/08/22 07:48:40;;;;;;;9.98;3.20;;;;;;;36.25;24.10;99732.72;10291029;28;20061;-75
2023/08/22 07:53:41;;;;;;;12.70;3.10;;;;;;;36.29;23.96;99730.84;10290633;28;20130;-74
2023/08/22 07:58:42;;;;;;;16.80;3.45;;;;;;;36.14;23.76;99675.53;10298209;28;20125;-75
2023/08/22 08:03:42;;;;;;;13.23;3.22;;;;;;;36.46;22.83;99679.09;10298520;28;20043;-75
2023/08/22 08:08:43;;;;;;;14.43;3.58;;;;;;;36.77;22.04;99714.28;10297918;28;20407;-75
2023/08/22 08:13:44;;;;;;;12.37;2.67;;;;;;;36.97;21.63;99709.56;10298092;28;20125;-75
2023/08/22 08:18:45;;;;;;;15.73;3.00;;;;;;;36.80;22.31;99685.88;10298105;28;20553;-75
2023/08/22 08:23:46;;;;;;;22.90;3.20;;;;;;;36.93;22.70;99687.34;10298045;28;20546;-75
2023/08/22 08:28:46;;;;;;;12.37;3.03;;;;;;;37.18;21.21;99710.06;10297559;28;20051;-75
2023/08/22 08:33:47;;;;;;;38.93;4.63;;;;;;;37.33;22.24;99710.38;10297571;28;20093;-75
2023/08/22 08:38:48;;;;;;;31.17;4.03;;;;;;;37.05;22.52;99653.22;10297207;28;20054;-75
2023/08/22 08:43:49;;;;;;;26.00;3.97;;;;;;;37.12;23.02;99645.06;10297091;28;20150;-75
2023/08/22 08:48:50;;;;;;;7.45;3.30;;;;;;;37.51;21.52;99692.16;10279615;28;20038;-75
2023/08/22 08:53:53;;;;;;;9.83;2.87;;;;;;;37.45;21.54;99661.19;10297826;28;20046;-75
2023/08/22 08:58:54;;;;;;;12.52;3.47;;;;;;;37.49;22.02;99639.09;10279342;28;20384;-75
2023/08/22 09:03:55;;;;;;;8.70;3.17;;;;;;;37.64;21.01;99642.97;10278957;28;20039;-75
2023/08/22 09:09:08;;;;;;;28.27;3.37;;;;;;;37.98;19.77;99688.34;10292272;28;20034;-75
2023/08/22 09:14:10;;;;;;;27.27;4.65;;;;;;;37.96;22.05;99679.56;10296049;28;20078;-75
2023/08/22 09:19:12;;;;;;;10.50;3.20;;;;;;;37.97;20.07;99669.31;10294740;28;20046;-75
2023/08/22 09:24:12;;;;;;;10.10;2.80;;;;;;;38.34;20.73;99672.31;10292646;28;20042;-75
2023/08/22 09:29:13;;;;;;;13.93;3.00;;;;;;;37.94;20.41;99672.81;10316142;28;20034;-75
2023/08/22 09:34:14;;;;;;;11.20;3.00;;;;;;;37.32;20.63;99636.75;10333984;28;20042;-76
2023/08/22 09:39:19;;;;;;;8.50;2.83;;;;;;;37.08;20.85;99669.09;10331318;28;20438;-75
2023/08/22 09:44:28;;;;;;;9.05;3.05;;;;;;;37.39;20.63;99643.22;10313323;28;20173;-75
2023/08/22 09:49:31;;;;;;;16.17;3.33;;;;;;;36.77;20.65;99604.38;10317197;28;20061;-75
2023/08/22 09:54:33;;;;;;;12.95;2.92;;;;;;;36.68;21.19;99648.03;10332661;28;20080;-75
2023/08/22 09:59:33;;;;;;;19.40;3.35;;;;;;;36.77;21.94;99632.03;10332432;28;20046;-75
2023/08/22 10:04:35;;;;;;;9.83;2.87;;;;;;;37.19;20.76;99641.66;10332724;28;20034;-75
2023/08/22 10:09:38;;;;;;;9.73;3.10;;;;;;;37.71;21.32;99645.06;10331963;28;20064;-76
2023/08/22 10:14:45;;;;;;;10.50;3.00;;;;;;;37.61;21.33;99629.84;10315965;28;20272;-75
2023/08/22 10:19:46;;;;;;;10.82;2.70;;;;;;;36.93;21.14;99634.75;10331113;28;20070;-75
2023/08/22 10:25:04;;;;;;;6.72;2.45;;;;;;;36.50;19.94;99632.97;10323434;28;20050;-75
2023/08/22 10:30:15;;;;;;;9.70;3.03;;;;;;;36.56;21.04;99648.16;10326753;28;20030;-76
2023/08/22 10:35:16;;;;;;;8.70;2.90;;;;;;;36.65;20.73;99646.00;10331188;28;20038;-74
2023/08/22 10:40:24;;;;;;;10.90;2.85;;;;;;;37.35;19.21;99647.91;10331591;28;20045;-75
2023/08/22 10:45:25;;;;;;;10.50;2.90;;;;;;;37.82;19.40;99613.59;10326679;28;20082;-75
2023/08/22 10:50:32;;;;;;;39.93;4.53;;;;;;;37.87;19.46;99629.91;10331592;28;20126;-74
2023/08/22 10:55:37;;;;;;;28.10;4.68;;;;;;;37.47;19.95;99652.53;10325212;28;20071;-74
2023/08/22 11:00:40;;;;;;;22.30;3.60;;;;;;;37.12;20.32;99606.28;10329572;28;20043;-75
2023/08/22 11:05:40;;;;;;;12.45;2.80;;;;;;;37.72;19.87;99646.63;10306701;28;20038;-74
2023/08/22 11:10:43;;;;;;;11.03;2.67;;;;;;;37.52;19.19;99646.69;10330197;28;20049;-75
2023/08/22 11:15:49;;;;;;;10.98;2.78;;;;;;;36.69;19.16;99552.78;10325794;28;20036;-74
2023/08/22 11:20:57;;;;;;;7.35;2.58;;;;;;;37.82;19.02;99643.28;10330291;28;20058;-75
2023/08/22 11:26:00;;;;;;;14.73;2.92;;;;;;;38.29;18.88;99628.22;10329707;28;20073;-75
2023/08/22 11:31:02;;;;;;;10.38;2.72;;;;;;;38.48;18.76;99621.81;10317807;28;20042;-74
2023/08/22 11:36:03;;;;;;;10.50;3.17;;;;;;;38.85;17.90;99635.84;10326390;28;20129;-75
2023/08/22 11:41:04;;;;;;;4.27;2.37;;;;;;;38.28;18.66;99563.63;10320889;28;20494;-74
2023/08/22 11:46:09;;;;;;;4.65;2.50;;;;;;;38.81;18.07;99624.66;10303783;28;20051;-75
2023/08/22 11:51:17;;;;;;;13.48;3.15;;;;;;;38.97;18.13;99627.28;10323471;28;20034;-75
2023/08/22 11:56:19;;;;;;;10.50;3.00;;;;;;;39.10;17.89;99632.59;10334184;28;20105;-74
2023/08/22 12:01:20;;;;;;;;;;;;;;;39.31;17.61;99630.13;10329244;28;20046;-74
2023/08/22 12:06:21;;;;;;;;;;;;;;;39.18;18.51;99634.28;10314529;28;19917;-75
2023/08/22 12:11:26;;;;;;;6.37;2.57;;;;;;;38.53;17.37;99583.47;10313864;28;19925;-74
2023/08/22 12:16:27;;;;;;;11.20;2.58;;;;;;;38.73;17.71;99627.72;10310886;28;20405;-75
2023/08/22 12:21:28;;;;;;;8.10;3.00;;;;;;;38.37;17.53;99578.03;10336998;28;20062;-75
2023/08/22 12:26:28;;;;;;;22.60;3.83;;;;;;;38.37;17.63;99591.09;10311617;28;20789;-75
2023/08/22 12:31:31;;;;;;;9.80;2.60;;;;;;;38.58;17.65;99613.63;10312125;28;20106;-75
2023/08/22 12:36:32;;;;;;;5.05;2.58;;;;;;;38.42;17.71;99618.56;10296704;28;20038;-75
2023/08/22 12:41:33;;;;;;;11.03;3.90;;;;;;;38.39;18.09;99633.19;10295459;28;20046;-74
2023/08/22 12:46:34;;;;;;;6.73;2.77;;;;;;;38.38;18.26;99637.09;10297009;28;20062;-75
2023/08/22 12:51:34;;;;;;;15.93;3.43;;;;;;;38.13;18.24;99639.47;10291649;28;20051;-75
2023/08/22 12:56:37;;;;;;;10.73;3.30;;;;;;;38.01;18.50;99643.25;10295129;28;20047;-75
2023/08/22 13:01:38;;;;;;;22.07;3.90;;;;;;;38.06;18.20;99645.72;10326112;28;20421;-75
2023/08/22 13:06:40;;;;;;;16.52;3.42;;;;;;;37.98;18.30;99632.88;10335208;28;20070;-75
2023/08/22 13:11:42;;;;;;;19.85;4.28;;;;;;;37.64;18.98;99585.56;10327299;28;20617;-74
2023/08/22 13:16:43;;;;;;;17.38;3.30;;;;;;;37.65;19.31;99614.84;10327873;28;20406;-76
2023/08/22 13:21:44;;;;;;;9.55;3.22;;;;;;;37.43;18.90;99569.31;10299642;28;20510;-76
2023/08/22 13:26:46;;;;;;;20.10;3.20;;;;;;;37.86;18.47;99635.81;10294614;28;20039;-76
2023/08/22 13:31:47;;;;;;;7.70;3.00;;;;;;;37.85;18.13;99631.44;10298644;28;20117;-74
2023/08/22 13:36:48;;;;;;;11.15;3.00;;;;;;;37.83;17.61;99626.25;10334256;28;20030;-73
2023/08/22 13:41:48;;;;;;;28.93;4.10;;;;;;;37.78;18.86;99645.16;10333169;28;20042;-73
2023/08/22 13:46:50;;;;;;;21.83;3.20;;;;;;;37.69;18.55;99631.53;10326207;28;20549;-74
2023/08/22 13:51:50;;;;;;;20.20;3.50;;;;;;;37.57;18.96;99643.59;10333820;28;20430;-74
2023/08/22 13:56:51;;;;;;;10.27;3.20;;;;;;;37.23;18.52;99601.78;10326122;28;20049;-73
2023/08/22 14:01:52;;;;;;;13.37;2.90;;;;;;;37.34;18.40;99653.81;10327416;28;20410;-74
2023/08/22 14:06:52;;;;;;;8.60;3.20;;;;;;;37.22;18.35;99652.00;10305666;28;20050;-74
2023/08/22 14:11:54;;;;;;;17.33;3.33;;;;;;;36.93;18.91;99622.88;10312704;28;20538;-74
2023/08/22 14:16:55;;;;;;;9.02;3.20;;;;;;;36.67;19.08;99596.63;10312588;28;20038;-75
2023/08/22 14:21:56;;;;;;;18.97;3.90;;;;;;;36.73;19.70;99630.34;10331644;28;20081;-74
2023/08/22 14:26:56;;;;;;;16.85;3.75;;;;;;;36.74;19.95;99645.81;10314449;28;20046;-74
2023/08/22 14:31:57;;;;;;;12.60;3.07;;;;;;;36.35;19.63;99634.59;10325300;28;20474;-74
2023/08/22 14:36:58;;;;;;;8.98;2.92;;;;;;;36.12;19.86;99656.53;10293667;28;20089;-73
2023/08/22 14:41:59;;;;;;;101.10;10.15;;;;;;;35.56;20.69;99595.84;10292573;28;20053;-74
2023/08/22 14:46:59;;;;;;;78.05;9.00;;;;;;;35.46;20.77;99624.75;10291914;28;20043;-74
2023/08/22 14:52:00;;;;;;;10.70;3.25;;;;;;;35.54;20.51;99658.88;10291919;28;20039;-74
2023/08/22 14:57:01;;;;;;;14.35;3.35;;;;;;;35.31;20.77;99662.22;10292044;28;20395;-74
2023/08/22 15:02:02;;;;;;;55.42;6.18;;;;;;;35.06;21.34;99664.25;10274372;28;20042;-74
2023/08/22 15:07:03;;;;;;;15.93;3.42;;;;;;;34.56;21.10;99604.78;10291505;28;20046;-74
2023/08/22 15:12:04;;;;;;;13.57;3.50;;;;;;;34.75;21.29;99673.13;10291438;28;20126;-74
2023/08/22 15:17:05;;;;;;;6.88;3.22;;;;;;;34.51;21.85;99680.22;10291081;28;20075;-74
2023/08/22 15:22:06;;;;;;;17.98;3.92;;;;;;;34.27;21.79;99680.22;10291377;28;20079;-74
2023/08/22 15:27:06;;;;;;;19.38;4.07;;;;;;;34.00;22.48;99687.94;10291469;28;20055;-74
2023/08/22 15:32:07;;;;;;;22.75;4.82;;;;;;;33.62;22.73;99669.69;10291270;28;20098;-74
2023/08/22 15:37:08;;;;;;;20.50;3.92;;;;;;;33.49;22.96;99694.75;10290676;28;20043;-74
2023/08/22 15:42:09;;;;;;;47.55;5.88;;;;;;;33.28;23.40;99712.09;10290999;28;20101;-74
2023/08/22 15:47:09;;;;;;;14.13;4.15;;;;;;;32.72;23.36;99659.97;10291624;28;20035;-75
2023/08/22 15:52:10;;;;;;;41.55;6.38;;;;;;;32.51;24.12;99678.38;10289540;28;20137;-74
2023/08/22 15:57:11;;;;;;;68.90;8.98;;;;;;;32.47;24.58;99726.94;10290708;28;20105;-75
2023/08/22 16:02:12;;;;;;;83.95;8.45;;;;;;;32.26;25.07;99722.13;10291254;28;20039;-75
2023/08/22 16:07:12;;;;;;;55.92;8.18;;;;;;;31.79;25.30;99702.00;10291080;28;20034;-75
2023/08/22 16:12:13;;;;;;;38.13;6.63;;;;;;;31.59;25.73;99725.41;10273592;28;20053;-75
2023/08/22 16:17:14;;;;;;;17.05;4.80;;;;;;;31.29;26.39;99735.38;10293425;28;20039;-75
2023/08/22 16:22:15;;;;;;;25.75;5.78;;;;;;;31.03;27.18;99747.16;10298211;28;20070;-74
2023/08/22 16:27:16;;;;;;;35.65;6.78;;;;;;;30.77;28.71;99755.25;10280899;28;20422;-75
2023/08/22 16:32:16;;;;;;;33.70;5.78;;;;;;;30.25;28.28;99701.03;10298072;28;20061;-75
2023/08/22 16:37:17;;;;;;;44.75;8.00;;;;;;;30.35;29.18;99752.00;10297328;28;20057;-75
2023/08/22 16:42:18;;;;;;;44.05;7.47;;;;;;;29.91;29.84;99739.13;10296460;28;20046;-75
2023/08/22 16:47:19;;;;;;;59.20;7.57;;;;;;;29.90;30.33;99782.13;10296843;28;20117;-80
2023/08/22 16:52:19;;;;;;;68.80;8.57;;;;;;;29.66;31.37;99789.84;10307943;28;20092;-75
2023/08/22 16:57:21;;;;;;;26.27;5.82;;;;;;;28.88;30.66;99692.16;10332901;28;20086;-74
2023/08/22 17:02:22;;;;;;;35.63;5.77;;;;;;;29.09;30.71;99751.91;10312271;28;20042;-75
2023/08/22 17:07:23;;;;;;;20.90;5.32;;;;;;;28.87;31.97;99738.97;10334692;28;20034;-75
2023/08/22 17:12:24;;;;;;;21.52;5.40;;;;;;;28.77;32.05;99758.28;10335518;28;20398;-75
2023/08/22 17:17:26;;;;;;;28.85;5.63;;;;;;;28.66;31.88;99771.34;10335324;28;20614;-75
2023/08/22 17:22:27;;;;;;;18.07;4.93;;;;;;;28.47;31.91;99760.47;10307875;28;20066;-75
2023/08/22 17:27:28;;;;;;;17.95;5.13;;;;;;;28.71;31.74;99805.94;10331538;28;20061;-75
2023/08/22 17:32:29;;;;;;;14.38;4.72;;;;;;;28.21;31.79;99750.00;10328426;28;20080;-75
2023/08/22 17:37:30;;;;;;;19.40;5.25;;;;;;;28.66;32.17;99842.41;10334489;28;20030;-75
2023/08/22 17:42:32;;;;;;;13.20;4.95;;;;;;;28.51;33.08;99843.47;10333276;28;20046;-75
2023/08/22 17:47:33;;;;;;;16.50;4.57;;;;;;;28.31;33.01;99839.13;10324769;28;20070;-75
2023/08/22 17:52:34;;;;;;;20.58;4.95;;;;;;;28.29;33.09;99837.78;10310965;28;20104;-75
2023/08/22 17:57:35;;;;;;;18.80;4.80;;;;;;;27.93;32.59;99783.75;10305685;28;20438;-74
2023/08/22 18:02:36;;;;;;;20.25;4.75;;;;;;;28.25;32.55;99831.31;10314592;28;20051;-75
2023/08/22 18:07:37;;;;;;;16.40;4.95;;;;;;;28.14;32.28;99825.19;10330293;28;20057;-75
2023/08/22 18:12:38;;;;;;;18.75;4.78;;;;;;;28.10;32.89;99830.44;10328894;28;20030;-75
2023/08/22 18:17:39;;;;;;;16.08;5.30;;;;;;;27.98;32.95;99825.44;10330646;28;20042;-75
2023/08/22 18:22:42;;;;;;;22.43;5.20;;;;;;;28.07;32.83;99841.16;10293510;28;20513;-75
2023/08/22 18:27:43;;;;;;;15.55;4.15;;;;;;;28.21;32.50;99859.22;10275960;28;20046;-75
2023/08/22 18:32:43;;;;;;;19.30;5.20;;;;;;;28.24;32.42;99868.75;10301476;28;20038;-74
2023/08/22 18:37:57;;;;;;;36.85;6.07;;;;;;;27.98;32.93;99833.63;10330620;28;20085;-75
2023/08/22 18:43:03;;;;;;;25.88;4.63;;;;;;;28.16;32.82;99862.03;10333354;28;20050;-75
2023/08/22 18:48:07;;;;;;;18.05;4.90;;;;;;;27.75;33.33;99809.91;10330971;28;20093;-75
2023/08/22 18:53:11;;;;;;;12.52;4.22;;;;;;;28.01;33.13;99854.06;10301038;28;20129;-75
2023/08/22 18:58:17;;;;;;;25.58;5.00;;;;;;;28.02;33.43;99876.72;10292196;28;20069;-75
2023/08/22 19:03:18;;;;;;;16.83;4.55;;;;;;;27.91;34.04;99879.59;10292151;28;20042;-74
2023/08/22 19:08:19;;;;;;;25.52;5.68;;;;;;;27.75;34.72;99873.50;10292968;28;20051;-75
2023/08/22 19:13:20;;;;;;;26.73;5.18;;;;;;;27.65;34.84;99878.28;10292373;28;20049;-75
2023/08/22 19:18:21;;;;;;;19.08;4.72;;;;;;;27.38;34.84;99849.72;10291243;28;20122;-75
2023/08/22 19:23:27;;;;;;;23.73;5.22;;;;;;;27.47;35.54;99898.97;10291860;28;20066;-75
2023/08/22 19:28:28;;;;;;;22.83;4.78;;;;;;;27.29;35.36;99890.44;10291779;28;20039;-74
2023/08/22 19:33:30;;;;;;;13.07;4.70;;;;;;;27.22;36.03;99890.00;10273444;28;20043;-75
2023/08/22 19:38:31;;;;;;;19.33;4.75;;;;;;;27.25;36.01;99889.41;10292010;28;20055;-74
2023/08/22 19:43:32;;;;;;;20.48;5.85;;;;;;;26.76;36.62;99838.63;10291252;28;20535;-75
2023/08/22 19:48:34;;;;;;;38.17;6.07;;;;;;;26.94;36.68;99879.88;10290716;28;20063;-74
2023/08/22 19:53:35;;;;;;;26.93;5.57;;;;;;;26.92;37.11;99885.63;10280985;28;20093;-75
2023/08/22 19:58:36;;;;;;;17.42;5.10;;;;;;;26.91;38.38;99907.72;10299493;28;20049;-75
2023/08/22 20:03:37;;;;;;;29.10;6.47;;;;;;;26.66;38.91;99906.06;10298652;28;20051;-75
2023/08/22 20:08:38;;;;;;;27.40;5.90;;;;;;;25.93;39.16;99840.34;10298448;28;20052;-75
2023/08/22 20:13:38;;;;;;;25.98;4.80;;;;;;;26.35;40.31;99919.84;10282047;28;20034;-75
2023/08/22 20:18:39;;;;;;;28.30;6.00;;;;;;;26.15;41.08;99931.69;10298637;28;20094;-74
2023/08/22 20:23:40;;;;;;;24.42;6.03;;;;;;;26.03;41.58;99926.59;10298511;28;20070;-75
2023/08/22 20:28:41;;;;;;;26.30;5.28;;;;;;;25.88;41.70;99930.22;10297294;28;20046;-75
2023/08/22 20:33:42;;;;;;;19.30;5.68;;;;;;;25.66;42.24;99921.56;10297910;28;20129;-75
2023/08/22 20:38:43;;;;;;;26.15;6.15;;;;;;;25.56;42.42;99910.72;10297505;28;20074;-75
2023/08/22 20:43:44;;;;;;;33.58;6.38;;;;;;;25.31;43.68;99895.28;10279252;28;20074;-75
2023/08/22 20:48:44;;;;;;;26.17;5.65;;;;;;;25.36;44.12;99944.22;10279380;28;20113;-75
2023/08/22 20:53:45;;;;;;;26.27;5.80;;;;;;;25.18;44.63;99937.47;10296910;28;20042;-75
2023/08/22 20:58:47;;;;;;;30.42;5.78;;;;;;;24.93;45.06;99925.53;10279122;28;20039;-74
2023/08/22 21:03:48;;;;;;;25.02;5.88;;;;;;;24.78;45.90;99928.25;10295711;28;20054;-75
2023/08/22 21:08:49;;;;;;;24.92;5.55;;;;;;;24.71;46.89;99908.69;10295787;28;20043;-75
2023/08/22 21:13:49;;;;;;;32.47;6.45;;;;;;;24.58;47.30;99891.03;10295567;28;20181;-75
2023/08/22 21:18:50;;;;;;;21.92;5.60;;;;;;;24.62;48.03;99922.00;10296330;28;20043;-75
2023/08/22 21:23:51;;;;;;;31.70;5.60;;;;;;;24.47;48.42;99930.97;10296017;28;20059;-74
2023/08/22 21:28:52;;;;;;;21.30;5.22;;;;;;;23.52;49.09;99806.44;10295301;28;20046;-74
2023/08/22 21:33:53;;;;;;;56.20;6.55;;;;;;;24.11;49.80;99925.44;10295346;28;20045;-74
2023/08/22 21:38:54;;;;;;;30.38;7.07;;;;;;;24.05;50.58;99928.38;10295612;28;20050;-74
2023/08/22 21:43:55;;;;;;;24.00;5.25;;;;;;;24.09;50.96;99932.22;10294875;28;20042;-74
2023/08/22 21:48:56;;;;;;;33.85;6.07;;;;;;;23.60;50.58;99865.59;10294656;28;20034;-74
2023/08/22 21:53:56;;;;;;;24.25;5.68;;;;;;;23.91;51.22;99925.38;10293972;28;20073;-74
2023/08/22 21:58:57;;;;;;;27.35;5.72;;;;;;;23.88;51.12;99944.91;10293944;28;20093;-75
2023/08/22 22:03:58;;;;;;;20.23;5.80;;;;;;;23.36;51.21;99865.22;10293555;28;20046;-74
2023/08/22 22:08:58;;;;;;;18.00;5.63;;;;;;;23.67;51.50;99930.41;10293471;28;20517;-75
2023/08/22 22:13:59;;;;;;;29.23;6.95;;;;;;;23.21;51.24;99874.09;10293846;28;20061;-74
2023/08/22 22:19:00;;;;;;;30.45;6.65;;;;;;;23.34;52.17;99927.00;10292993;28;20038;-74
2023/08/22 22:24:01;;;;;;;23.35;6.32;;;;;;;23.30;52.51;99938.59;10292875;28;20051;-74
2023/08/22 22:29:02;;;;;;;53.63;8.88;;;;;;;22.84;53.37;99879.50;10292666;28;20050;-74
2023/08/22 22:34:04;;;;;;;41.72;7.25;;;;;;;22.69;53.51;99874.78;10293528;28;20530;-74
2023/08/22 22:39:05;;;;;;;52.47;7.88;;;;;;;23.03;53.89;99939.50;10292997;28;20030;-75
2023/08/22 22:44:07;;;;;;;17.10;5.75;;;;;;;22.81;54.53;99909.00;10275398;28;20059;-74
2023/08/22 22:49:08;;;;;;;50.83;7.30;;;;;;;22.64;54.60;99918.06;10292596;28;20031;-74
2023/08/22 22:54:08;;;;;;;35.25;6.15;;;;;;;22.70;55.16;99935.16;10274300;28;20403;-74
2023/08/22 22:59:10;;;;;;;25.77;6.47;;;;;;;22.65;55.25;99937.84;10291748;28;20037;-75
2023/08/22 23:04:11;;;;;;;22.77;6.10;;;;;;;22.46;55.15;99918.44;10273416;28;20039;-74
2023/08/22 23:09:12;;;;;;;35.90;7.18;;;;;;;22.21;54.18;99887.38;10292007;28;20083;-75